Terminal Aerodrome Forecast
Issued by NWS El Paso, TX

Home | Current Version | Previous Version | Text Only | Print | Product List | Glossary On
Versions: 1 2 3 4 5 6 7 8 9 10 11 12
000
FTUS44 KEPZ 291700
TAFELP
TAF
KELP 291720Z 2918/3018 33008KT P6SM FEW250
     FM292100 24007KT P6SM SCT250
     FM300500 06005KT P6SM BKN250
     FM301600 11006KT P6SM BKN250=

USA.gov is the U.S. government's official web portal to all federal, state and local government web resources and services.